Terminal Aerodrome Forecast
Issued by NWS

Home | Current Version | Previous Version | Graphics & Text | Print | Product List | Glossary On
Versions: 1 2 3 4 5 6 7 8 9 10 11 12 13 14 15 16 17
000
FTUS41 KCLE 281126
TAFFDY
TAF
KFDY 281126Z 2812/2912 32012G20KT P6SM SCT030 BKN050
      TEMPO 2812/2814 P6SM BKN030
     FM281500 32012G18KT P6SM SCT120
     FM282000 30008KT P6SM SKC
     FM290200 VRB05KT P6SM SCT250=

USA.gov is the U.S. government's official web portal to all federal, state and local government web resources and services.